createdAt,value
2022-09-28T00:02:22.102Z,7.31
2022-09-28T00:04:49.980Z,7.30
2022-09-28T00:07:19.132Z,7.30
2022-09-28T00:09:46.894Z,7.27
2022-09-28T00:12:15.185Z,7.32
2022-09-28T00:14:44.557Z,7.26
2022-09-28T00:17:12.766Z,7.26
2022-09-28T00:19:40.996Z,7.25
2022-09-28T00:22:08.779Z,7.21
2022-09-28T00:24:37.988Z,7.27
2022-09-28T00:27:06.118Z,7.18
2022-09-28T00:29:34.957Z,7.09
2022-09-28T00:32:03.962Z,7.00
2022-09-28T00:34:33.318Z,6.95
2022-09-28T00:37:01.581Z,6.88
2022-09-28T00:39:31.519Z,6.85
2022-09-28T00:42:00.802Z,6.78
2022-09-28T00:44:49.774Z,6.69
2022-09-28T00:47:20.818Z,6.70
2022-09-28T00:49:50.882Z,6.71
2022-09-28T00:52:21.088Z,6.65
2022-09-28T00:54:49.155Z,6.62
2022-09-28T00:57:18.508Z,6.59
2022-09-28T00:59:46.551Z,6.64
2022-09-28T01:02:14.979Z,6.63
2022-09-28T01:04:42.822Z,6.70
2022-09-28T01:07:11.093Z,6.74
2022-09-28T01:09:40.619Z,6.77
2022-09-28T01:12:08.644Z,6.78
2022-09-28T01:14:38.252Z,6.81
2022-09-28T01:17:09.330Z,6.91
2022-09-28T01:20:05.417Z,6.98
2022-09-28T01:22:46.950Z,6.97
2022-09-28T01:25:25.684Z,6.91
2022-09-28T01:27:57.226Z,6.83
2022-09-28T01:30:25.295Z,6.70
2022-09-28T01:32:56.963Z,6.65
2022-09-28T01:35:28.016Z,6.58
2022-09-28T01:37:57.977Z,6.60
2022-09-28T01:40:27.255Z,6.67
2022-09-28T01:43:00.011Z,6.82
2022-09-28T01:45:34.280Z,6.89
2022-09-28T01:48:04.381Z,6.94
2022-09-28T01:50:36.136Z,6.98
2022-09-28T01:53:08.110Z,6.95
2022-09-28T01:55:38.287Z,6.94
2022-09-28T01:58:11.492Z,6.97
2022-09-28T02:00:42.023Z,6.98
2022-09-28T02:03:13.446Z,6.95
2022-09-28T02:05:43.950Z,6.94
2022-09-28T02:08:15.013Z,6.91
2022-09-28T02:10:44.830Z,6.93
2022-09-28T02:13:17.254Z,7.01
2022-09-28T02:15:47.782Z,7.04
2022-09-28T02:18:15.786Z,7.04
2022-09-28T02:20:47.714Z,7.05
2022-09-28T02:23:16.312Z,7.08
2022-09-28T02:25:46.010Z,7.12
2022-09-28T02:28:15.217Z,7.12
2022-09-28T02:30:43.987Z,7.13
2022-09-28T02:33:13.809Z,7.18
2022-09-28T02:35:42.655Z,7.19
2022-09-28T02:38:11.319Z,7.16
2022-09-28T02:40:39.689Z,7.15
2022-09-28T02:43:13.116Z,7.12
2022-09-28T02:45:49.002Z,7.12
2022-09-28T02:48:41.264Z,7.01
2022-09-28T02:51:16.384Z,6.98
2022-09-28T02:53:54.385Z,6.95
2022-09-28T02:56:34.324Z,6.98
2022-09-28T02:59:07.923Z,6.97
2022-09-28T03:01:41.992Z,6.99
2022-09-28T03:04:13.299Z,6.96
2022-09-28T03:06:44.805Z,6.97
2022-09-28T03:09:18.689Z,6.97
2022-09-28T03:11:48.548Z,6.91
2022-09-28T03:14:16.896Z,6.87
2022-09-28T03:16:46.459Z,6.85
2022-09-28T03:19:15.100Z,6.85
2022-09-28T03:21:43.106Z,6.83
2022-09-28T03:24:11.375Z,6.84
2022-09-28T03:26:39.436Z,6.84
2022-09-28T03:29:07.652Z,6.87
2022-09-28T03:31:36.028Z,6.82
2022-09-28T03:34:05.353Z,6.84
2022-09-28T03:36:33.193Z,6.86
2022-09-28T03:39:01.118Z,6.81
2022-09-28T03:41:29.152Z,6.82
2022-09-28T03:43:57.007Z,6.80
2022-09-28T03:46:24.826Z,6.89
2022-09-28T03:48:52.616Z,6.94
2022-09-28T03:51:21.755Z,6.96
2022-09-28T03:53:49.699Z,6.95
2022-09-28T03:56:17.709Z,7.01
2022-09-28T03:58:45.567Z,6.95
2022-09-28T04:01:17.499Z,6.99
2022-09-28T04:03:46.188Z,7.03
2022-09-28T04:06:14.329Z,7.00
2022-09-28T04:08:44.091Z,6.98
2022-09-28T04:11:12.308Z,6.96
2022-09-28T04:13:40.294Z,6.90
2022-09-28T04:16:08.429Z,6.91
2022-09-28T04:18:36.373Z,6.85
2022-09-28T04:21:06.587Z,6.92
2022-09-28T04:23:34.812Z,6.93
2022-09-28T04:26:04.472Z,6.90
2022-09-28T04:28:50.185Z,6.91
2022-09-28T04:31:19.236Z,6.92
2022-09-28T04:33:47.315Z,6.97
2022-09-28T04:36:15.126Z,6.92
2022-09-28T04:38:53.283Z,6.93
2022-09-28T04:41:23.138Z,6.91
2022-09-28T04:43:51.144Z,6.91
2022-09-28T04:46:19.471Z,6.92
2022-09-28T04:48:47.327Z,6.90
2022-09-28T04:51:15.374Z,6.95
2022-09-28T04:53:43.319Z,6.94
2022-09-28T04:56:12.158Z,6.96
2022-09-28T04:58:41.735Z,6.89
2022-09-28T05:01:11.733Z,6.88
2022-09-28T05:03:39.626Z,6.87
2022-09-28T05:06:07.963Z,6.90
2022-09-28T05:08:36.259Z,6.90
2022-09-28T05:11:05.402Z,6.87
2022-09-28T05:13:35.544Z,6.94
2022-09-28T05:16:05.715Z,6.91
2022-09-28T05:18:33.754Z,6.94
2022-09-28T05:21:02.000Z,7.01
2022-09-28T05:23:29.810Z,6.99
2022-09-28T05:25:57.700Z,6.97
2022-09-28T05:28:27.111Z,7.01
2022-09-28T05:30:58.948Z,7.02
2022-09-28T05:33:28.703Z,7.04
2022-09-28T05:36:00.883Z,7.04
2022-09-28T05:38:29.725Z,7.07
2022-09-28T05:40:57.659Z,7.05
2022-09-28T05:43:25.560Z,7.03
2022-09-28T05:45:55.851Z,7.03
2022-09-28T05:48:31.432Z,7.03
2022-09-28T05:51:00.753Z,7.01
2022-09-28T05:53:28.564Z,6.91
2022-09-28T05:56:00.763Z,6.91
2022-09-28T05:58:29.060Z,6.90
2022-09-28T06:00:59.380Z,6.82
2022-09-28T06:03:27.237Z,6.82
2022-09-28T06:05:55.114Z,6.94
2022-09-28T06:08:24.304Z,7.16
2022-09-28T06:10:52.323Z,7.39
2022-09-28T06:13:20.625Z,7.70
2022-09-28T06:15:48.450Z,8.06
2022-09-28T06:18:16.260Z,8.32
2022-09-28T06:20:44.146Z,8.30
2022-09-28T06:23:12.709Z,8.28
2022-09-28T06:25:42.255Z,8.11
2022-09-28T06:28:11.237Z,8.14
2022-09-28T06:30:39.477Z,8.16
2022-09-28T06:33:08.352Z,8.15
2022-09-28T06:35:36.374Z,8.10
2022-09-28T06:38:04.154Z,8.06
2022-09-28T06:40:32.373Z,8.06
2022-09-28T06:43:02.568Z,8.11
2022-09-28T06:45:31.080Z,8.27
2022-09-28T06:47:59.916Z,8.18
2022-09-28T06:50:28.512Z,8.16
2022-09-28T06:52:57.090Z,8.13
2022-09-28T06:55:25.667Z,8.22
2022-09-28T06:58:05.150Z,8.31
2022-09-28T07:00:34.581Z,8.27
2022-09-28T07:03:03.075Z,8.28
2022-09-28T07:05:34.742Z,8.28
2022-09-28T07:08:03.397Z,8.21
2022-09-28T07:10:31.885Z,8.21
2022-09-28T07:13:02.493Z,8.20
2022-09-28T07:15:32.156Z,8.16
2022-09-28T07:18:03.343Z,8.21
2022-09-28T07:20:40.783Z,8.20
2022-09-28T07:23:18.812Z,8.10
2022-09-28T07:25:50.144Z,8.04
2022-09-28T07:28:18.157Z,7.99
2022-09-28T07:30:47.554Z,8.05
2022-09-28T07:33:16.071Z,8.11
2022-09-28T07:35:50.866Z,8.17
2022-09-28T07:38:19.346Z,8.18
2022-09-28T07:41:05.280Z,8.24
2022-09-28T07:43:33.535Z,8.35
2022-09-28T07:46:03.335Z,8.40
2022-09-28T07:48:37.686Z,8.37
2022-09-28T07:51:05.818Z,8.45
2022-09-28T07:53:33.668Z,8.50
2022-09-28T07:56:05.621Z,8.55
2022-09-28T07:58:34.237Z,8.61
2022-09-28T08:01:06.416Z,8.55
2022-09-28T08:03:34.906Z,8.74
2022-09-28T08:06:03.769Z,8.70
2022-09-28T08:08:31.648Z,8.71
2022-09-28T08:10:59.526Z,8.81
2022-09-28T08:13:27.515Z,9.06
2022-09-28T08:15:56.448Z,9.22
2022-09-28T08:18:25.629Z,9.22
2022-09-28T08:21:10.774Z,9.24
2022-09-28T08:23:38.834Z,9.26
2022-09-28T08:26:07.129Z,9.28
2022-09-28T08:28:36.599Z,9.31
2022-09-28T08:31:07.390Z,9.40
2022-09-28T08:33:36.809Z,9.62
2022-09-28T08:36:05.973Z,9.87
2022-09-28T08:38:33.802Z,9.79
2022-09-28T08:41:05.129Z,9.71
2022-09-28T08:43:42.564Z,9.65
2022-09-28T08:46:12.516Z,9.90
2022-09-28T08:49:13.448Z,10.10
2022-09-28T08:51:44.715Z,9.98
2022-09-28T08:54:18.774Z,9.91
2022-09-28T08:56:49.788Z,9.99
2022-09-28T08:59:19.781Z,10.15
2022-09-28T09:01:49.209Z,10.31
2022-09-28T09:04:18.830Z,10.42
2022-09-28T09:06:55.966Z,10.49
2022-09-28T09:09:31.200Z,11.13
2022-09-28T09:12:05.465Z,11.53
2022-09-28T09:14:51.306Z,11.66
2022-09-28T09:17:23.722Z,11.83
2022-09-28T09:19:55.120Z,12.43
2022-09-28T09:22:29.468Z,12.45
2022-09-28T09:25:02.613Z,12.20
2022-09-28T09:27:52.018Z,11.94
2022-09-28T09:30:21.931Z,11.81
2022-09-28T09:33:08.251Z,12.26
2022-09-28T09:35:54.144Z,12.48
2022-09-28T09:38:38.923Z,12.33
2022-09-28T09:41:14.840Z,12.21
2022-09-28T09:43:58.616Z,12.19
2022-09-28T09:46:33.291Z,11.87
2022-09-28T09:49:06.421Z,11.68
2022-09-28T09:51:38.800Z,11.93
2022-09-28T09:54:13.519Z,12.22
2022-09-28T09:56:44.770Z,12.22
2022-09-28T09:59:15.023Z,11.88
2022-09-28T10:01:43.213Z,11.89
2022-09-28T10:04:16.530Z,12.53
2022-09-28T10:06:44.671Z,12.67
2022-09-28T10:09:18.588Z,13.48
2022-09-28T10:11:49.814Z,14.59
2022-09-28T10:14:19.972Z,16.07
2022-09-28T10:16:49.000Z,16.49
2022-09-28T10:19:17.714Z,18.79
2022-09-28T10:21:46.839Z,18.71
2022-09-28T10:24:19.434Z,18.86
2022-09-28T10:26:49.611Z,20.92
2022-09-28T10:29:18.426Z,22.32
2022-09-28T10:31:48.206Z,21.23
2022-09-28T10:34:17.421Z,19.31
2022-09-28T10:36:47.737Z,19.02
2022-09-28T10:39:36.139Z,20.10
2022-09-28T10:42:07.125Z,24.00
2022-09-28T10:44:36.220Z,21.39
2022-09-28T10:47:07.902Z,18.89
2022-09-28T10:49:43.206Z,19.44
2022-09-28T10:52:33.301Z,19.80
2022-09-28T10:55:03.029Z,18.76
2022-09-28T10:57:34.528Z,17.32
2022-09-28T11:00:03.258Z,17.28
2022-09-28T11:02:35.676Z,16.96
2022-09-28T11:05:05.610Z,17.27
2022-09-28T11:07:34.905Z,17.72
2022-09-28T11:10:04.334Z,18.52
2022-09-28T11:12:36.373Z,18.10
2022-09-28T11:15:06.637Z,18.20
2022-09-28T11:17:38.493Z,18.61
2022-09-28T11:20:29.171Z,19.44
2022-09-28T11:22:57.762Z,20.33
2022-09-28T11:25:28.857Z,20.66
2022-09-28T11:27:57.993Z,19.94
2022-09-28T11:30:27.917Z,19.17
2022-09-28T11:32:57.914Z,18.24
2022-09-28T11:35:29.040Z,17.34
2022-09-28T11:38:05.529Z,16.02
2022-09-28T11:40:44.675Z,15.46
2022-09-28T11:43:19.936Z,14.66
2022-09-28T11:45:52.592Z,14.15
2022-09-28T11:48:24.427Z,13.00
2022-09-28T11:50:53.981Z,12.50
2022-09-28T11:53:24.271Z,12.27
2022-09-28T11:55:55.944Z,12.20
2022-09-28T11:58:28.703Z,12.71
2022-09-28T12:01:00.488Z,13.86
2022-09-28T12:03:32.112Z,16.07
2022-09-28T12:06:01.690Z,17.30
2022-09-28T12:08:31.015Z,16.54
2022-09-28T12:11:02.202Z,15.25
2022-09-28T12:13:34.256Z,14.25
2022-09-28T12:18:54.362Z,13.59
2022-09-28T12:21:33.185Z,13.49
2022-09-28T12:24:04.536Z,13.53
2022-09-28T12:26:38.127Z,13.68
2022-09-28T12:29:07.924Z,17.44
2022-09-28T12:31:38.660Z,25.70
2022-09-28T12:34:06.624Z,27.57
2022-09-28T12:36:42.205Z,25.94
2022-09-28T12:39:30.714Z,22.89
2022-09-28T12:42:14.360Z,19.98
2022-09-28T12:44:48.332Z,18.10
2022-09-28T12:47:27.937Z,16.73
2022-09-28T12:53:08.313Z,15.26
2022-09-28T12:55:56.483Z,14.79
2022-09-28T12:58:43.207Z,14.23
2022-09-28T13:01:21.934Z,13.89
2022-09-28T13:04:03.769Z,14.15
2022-09-28T13:06:38.805Z,14.52
2022-09-28T13:09:19.888Z,16.15
2022-09-28T13:11:56.229Z,20.88
2022-09-28T13:14:34.396Z,19.72
2022-09-28T13:17:06.006Z,17.47
2022-09-28T13:19:36.199Z,15.72
2022-09-28T13:22:10.466Z,15.38
2022-09-28T13:24:43.748Z,15.64
2022-09-28T13:27:15.157Z,17.45
2022-09-28T13:29:44.053Z,22.73
2022-09-28T13:32:13.869Z,24.62
2022-09-28T13:34:41.695Z,22.75
2022-09-28T13:37:11.215Z,20.72
2022-09-28T13:39:48.640Z,19.11
2022-09-28T13:42:25.503Z,19.57
2022-09-28T13:45:02.924Z,23.11
2022-09-28T13:47:50.353Z,23.58
2022-09-28T13:50:22.082Z,23.53
2022-09-28T13:52:53.084Z,21.64
2022-09-28T13:55:27.222Z,22.59
2022-09-28T13:57:56.881Z,22.83
2022-09-28T14:00:28.139Z,22.12
2022-09-28T14:03:01.490Z,22.41
2022-09-28T14:05:36.806Z,25.13
2022-09-28T14:08:25.740Z,23.80
2022-09-28T14:10:54.345Z,20.47
2022-09-28T14:13:40.824Z,18.34
2022-09-28T14:16:22.022Z,17.78
2022-09-28T14:18:53.303Z,16.63
2022-09-28T14:21:29.389Z,15.57
2022-09-28T14:24:04.546Z,14.82
2022-09-28T14:26:47.377Z,14.39
2022-09-28T14:29:28.665Z,14.17
2022-09-28T14:31:58.184Z,13.71
2022-09-28T14:34:32.122Z,13.57
2022-09-28T14:37:18.468Z,13.17
2022-09-28T14:40:04.741Z,13.32
2022-09-28T14:42:32.791Z,13.60
2022-09-28T14:45:19.919Z,13.57
2022-09-28T14:48:06.332Z,13.45
2022-09-28T14:50:35.678Z,13.29
2022-09-28T14:53:05.438Z,13.13
2022-09-28T14:55:35.769Z,13.52
2022-09-28T14:58:04.317Z,14.09
2022-09-28T15:00:32.241Z,14.39
2022-09-28T15:03:01.606Z,14.15
2022-09-28T15:05:31.466Z,13.71
2022-09-28T15:08:01.774Z,13.44
2022-09-28T15:10:32.333Z,13.06
2022-09-28T15:13:02.233Z,12.88
2022-09-28T15:15:32.855Z,12.66
2022-09-28T15:18:28.391Z,12.48
2022-09-28T15:20:56.686Z,12.18
2022-09-28T15:23:27.576Z,12.06
2022-09-28T15:25:55.974Z,12.06
2022-09-28T15:28:25.095Z,12.07
2022-09-28T15:30:59.665Z,12.02
2022-09-28T15:33:51.313Z,12.11
2022-09-28T15:36:21.305Z,12.15
2022-09-28T15:38:54.832Z,12.14
2022-09-28T15:41:24.849Z,12.23
2022-09-28T15:44:08.389Z,12.24
2022-09-28T15:46:37.887Z,12.33
2022-09-28T15:49:06.076Z,12.35
2022-09-28T15:51:46.828Z,12.34
2022-09-28T15:54:19.542Z,12.21
2022-09-28T15:56:52.285Z,12.17
2022-09-28T15:59:26.159Z,12.11
2022-09-28T16:02:08.073Z,12.04
2022-09-28T16:04:38.302Z,11.89
2022-09-28T16:07:17.978Z,11.84
2022-09-28T16:09:58.513Z,11.89
2022-09-28T16:12:31.796Z,11.82
2022-09-28T16:15:04.403Z,11.75
2022-09-28T16:17:33.529Z,11.70
2022-09-28T16:20:03.132Z,11.60
2022-09-28T16:22:32.658Z,11.51
2022-09-28T16:25:02.181Z,11.34
2022-09-28T16:27:31.751Z,11.41
2022-09-28T16:30:05.109Z,11.34
2022-09-28T16:32:37.504Z,11.28
2022-09-28T16:35:22.068Z,11.22
2022-09-28T16:37:55.546Z,11.23
2022-09-28T16:40:24.901Z,11.24
2022-09-28T16:42:55.081Z,11.22
2022-09-28T16:45:24.270Z,11.17
2022-09-28T16:47:52.981Z,11.06
2022-09-28T16:50:21.629Z,10.94
2022-09-28T16:53:07.694Z,10.97
2022-09-28T16:55:40.862Z,10.92
2022-09-28T16:58:09.352Z,10.90
2022-09-28T17:00:37.181Z,10.77
2022-09-28T17:03:12.082Z,10.68
2022-09-28T17:05:40.142Z,10.66
2022-09-28T17:08:08.132Z,10.63
2022-09-28T17:11:02.108Z,10.56
2022-09-28T17:13:31.299Z,10.45
2022-09-28T17:15:59.130Z,10.42
2022-09-28T17:18:26.950Z,10.37
2022-09-28T17:20:56.661Z,10.28
2022-09-28T17:23:24.561Z,10.30
2022-09-28T17:25:55.520Z,10.20
2022-09-28T17:28:25.043Z,10.17
2022-09-28T17:30:53.077Z,10.11
2022-09-28T17:33:21.238Z,10.10
2022-09-28T17:35:49.271Z,10.08
2022-09-28T17:38:17.246Z,10.05
2022-09-28T17:40:45.472Z,10.04
2022-09-28T17:43:14.778Z,10.01
2022-09-28T17:45:42.609Z,10.01
2022-09-28T17:48:13.217Z,9.96
2022-09-28T17:50:46.241Z,9.97
2022-09-28T17:53:15.033Z,9.84
2022-09-28T17:55:43.894Z,9.86
2022-09-28T17:58:17.903Z,9.77
2022-09-28T18:00:46.832Z,9.78
2022-09-28T18:03:16.398Z,9.71
2022-09-28T18:05:44.457Z,9.69
2022-09-28T18:08:14.139Z,9.65
2022-09-28T18:10:42.010Z,9.54
2022-09-28T18:13:10.265Z,9.49
2022-09-28T18:15:39.548Z,9.56
2022-09-28T18:18:09.422Z,9.44
2022-09-28T18:20:37.588Z,9.39
2022-09-28T18:23:05.926Z,9.36
2022-09-28T18:25:33.987Z,9.31
2022-09-28T18:28:02.090Z,9.29
2022-09-28T18:30:29.910Z,9.33
2022-09-28T18:32:59.041Z,9.29
2022-09-28T18:35:26.843Z,9.34
2022-09-28T18:37:54.773Z,9.33
2022-09-28T18:40:22.760Z,9.30
2022-09-28T18:42:50.686Z,9.27
2022-09-28T18:45:18.858Z,9.24
2022-09-28T18:47:46.787Z,9.26
2022-09-28T18:50:16.258Z,9.23
2022-09-28T18:52:45.147Z,9.17
2022-09-28T18:55:13.229Z,9.11
2022-09-28T18:57:41.205Z,9.06
2022-09-28T19:00:10.266Z,8.97
2022-09-28T19:02:38.731Z,8.91
2022-09-28T19:05:07.095Z,8.79
2022-09-28T19:07:36.225Z,8.82
2022-09-28T19:10:04.278Z,8.73
2022-09-28T19:12:33.013Z,8.66
2022-09-28T19:15:00.972Z,8.58
2022-09-28T19:17:29.007Z,8.41
2022-09-28T19:19:56.797Z,8.38
2022-09-28T19:22:24.551Z,8.35
2022-09-28T19:24:53.706Z,8.42
2022-09-28T19:27:21.668Z,8.38
2022-09-28T19:29:50.349Z,8.43
2022-09-28T19:32:18.136Z,8.32
2022-09-28T19:34:45.907Z,8.24
2022-09-28T19:37:13.654Z,8.18
2022-09-28T19:39:41.596Z,8.15
2022-09-28T19:42:10.709Z,8.17
2022-09-28T19:44:39.144Z,8.09
2022-09-28T19:47:08.790Z,8.03
2022-09-28T19:49:37.589Z,7.96
2022-09-28T19:52:15.336Z,7.86
2022-09-28T19:54:44.782Z,7.82
2022-09-28T19:57:15.577Z,7.78
2022-09-28T19:59:43.376Z,7.71
2022-09-28T20:02:11.488Z,7.72
2022-09-28T20:04:39.265Z,7.76
2022-09-28T20:07:07.183Z,7.81
2022-09-28T20:09:34.969Z,7.83
2022-09-28T20:12:03.026Z,7.86
2022-09-28T20:14:38.025Z,7.89
2022-09-28T20:17:07.475Z,7.96
2022-09-28T20:19:35.972Z,7.92
2022-09-28T20:22:03.929Z,7.85
2022-09-28T20:24:32.013Z,7.72
2022-09-28T20:27:01.110Z,7.59
2022-09-28T20:29:29.174Z,7.40
2022-09-28T20:31:58.878Z,7.30
2022-09-28T20:34:26.722Z,7.21
2022-09-28T20:36:54.498Z,7.15
2022-09-28T20:39:22.249Z,7.16
2022-09-28T20:41:50.185Z,7.13
2022-09-28T20:44:18.100Z,7.14
2022-09-28T20:46:46.139Z,7.07
2022-09-28T20:49:15.294Z,7.07
2022-09-28T20:51:43.087Z,6.98
2022-09-28T20:54:10.983Z,6.84
2022-09-28T20:56:39.189Z,6.75
2022-09-28T20:59:08.134Z,6.69
2022-09-28T21:01:36.302Z,6.78
2022-09-28T21:04:05.508Z,6.76
2022-09-28T21:06:35.707Z,6.80
2022-09-28T21:09:04.142Z,6.91
2022-09-28T21:11:32.086Z,6.85
2022-09-28T21:14:01.005Z,6.88
2022-09-28T21:16:29.491Z,6.95
2022-09-28T21:18:57.419Z,6.99
2022-09-28T21:21:25.625Z,6.96
2022-09-28T21:23:55.120Z,7.04
2022-09-28T21:26:25.628Z,7.05
2022-09-28T21:28:53.804Z,7.01
2022-09-28T21:31:27.528Z,6.97
2022-09-28T21:33:56.354Z,6.98
2022-09-28T21:36:24.404Z,6.91
2022-09-28T21:38:52.207Z,6.92
2022-09-28T21:41:21.366Z,6.90
2022-09-28T21:43:49.239Z,6.79
2022-09-28T21:46:17.535Z,6.81
2022-09-28T21:48:45.472Z,6.73
2022-09-28T21:51:14.565Z,6.75
2022-09-28T21:53:42.535Z,6.76
2022-09-28T21:56:11.317Z,6.70
2022-09-28T21:58:40.782Z,6.66
2022-09-28T22:01:09.721Z,6.64
2022-09-28T22:03:37.649Z,6.79
2022-09-28T22:06:05.979Z,6.67
2022-09-28T22:08:34.263Z,6.66
2022-09-28T22:11:03.247Z,6.61
2022-09-28T22:13:31.957Z,6.57
2022-09-28T22:16:01.390Z,6.46
2022-09-28T22:18:30.432Z,6.44
2022-09-28T22:21:01.477Z,6.38
2022-09-28T22:23:29.842Z,6.33
2022-09-28T22:26:01.113Z,6.32
2022-09-28T22:28:29.664Z,6.30
2022-09-28T22:30:57.954Z,6.23
2022-09-28T22:33:27.387Z,6.21
2022-09-28T22:35:55.622Z,6.18
2022-09-28T22:38:24.369Z,6.12
2022-09-28T22:40:54.412Z,6.10
2022-09-28T22:43:23.278Z,6.05
2022-09-28T22:45:51.209Z,6.08
2022-09-28T22:48:18.999Z,5.97
2022-09-28T22:50:51.780Z,5.90
2022-09-28T22:53:19.992Z,5.82
2022-09-28T22:55:47.750Z,5.79
2022-09-28T22:58:15.659Z,5.79
2022-09-28T23:00:44.390Z,5.75
2022-09-28T23:03:12.330Z,5.72
2022-09-28T23:05:40.345Z,5.66
2022-09-28T23:08:10.478Z,5.58
2022-09-28T23:10:38.284Z,5.49
2022-09-28T23:13:06.025Z,5.43
2022-09-28T23:15:33.780Z,5.44
2022-09-28T23:18:01.692Z,5.46
2022-09-28T23:20:29.480Z,5.43
2022-09-28T23:22:57.281Z,5.44
2022-09-28T23:25:26.504Z,5.46
2022-09-28T23:27:54.253Z,5.39
2022-09-28T23:30:22.947Z,5.31
2022-09-28T23:32:52.323Z,5.28
2022-09-28T23:35:20.131Z,5.43
2022-09-28T23:37:50.202Z,5.51
2022-09-28T23:40:18.132Z,5.38
2022-09-28T23:42:47.418Z,5.34
2022-09-28T23:45:15.208Z,5.26
2022-09-28T23:47:42.983Z,5.38
2022-09-28T23:50:10.745Z,5.25
2022-09-28T23:52:38.530Z,5.19
2022-09-28T23:55:06.926Z,5.32
2022-09-28T23:57:34.793Z,5.17
